Wilson Lahn — 8PUO — position and weather

sailwx.info

Track history (hours):
 
Tides and Currents Weather Stations Pressure Air Temp Water Temp Dewpoint Dewpoint Depression Visibility Wind Speed Wind Dir Waves Ship Positions

Wilson Lahn

Last reported at 2017-Feb-28 02:32 UTC. Time now 2017-Feb-28 03:28 UTC.
Position N 54°37' W 005°54'.

Length 83 m; draft 4.7 m.

Type: Cargo ship. MMSI: 314259000.

Date/timePositionNaut miles runAvg speedWind from/ knotsBaromVisibWave heightAir tempDewpointWater temp
2017-Feb-28 02:32N 54°37' W 005°54'0 0.0
2017-Feb-28 01:26N 54°37' W 005°54'0 0.0
2017-Feb-28 00:32N 54°37' W 005°54'0 0.0
2017-Feb-27 23:20N 54°37' W 005°54'0 0.0
2017-Feb-27 22:20N 54°37' W 005°54'0 0.0
2017-Feb-27 21:32N 54°37' W 005°54'0 0.0
2017-Feb-27 18:22N 54°37' W 005°54'1 1.2
2017-Feb-27 17:32N 54°37' W 005°55'0 0.0
2017-Feb-27 15:26N 54°37' W 005°55'0 0.0
2017-Feb-27 07:17N 54°37' W 005°55'0 0.0
2017-Feb-27 06:20N 54°37' W 005°55'0 0.0
2017-Feb-27 05:32N 54°37' W 005°55'0 0.0
2017-Feb-27 04:29N 54°37' W 005°55'0 0.0
2017-Feb-27 03:32N 54°37' W 005°55'0 0.0
2017-Feb-27 02:32N 54°37' W 005°55'0 0.0
2017-Feb-27 01:29N 54°37' W 005°55'0 0.0
2017-Feb-27 00:29N 54°37' W 005°55'0 0.0
2017-Feb-26 20:32N 54°37' W 005°55'0 0.0
2017-Feb-26 19:29N 54°37' W 005°55'0 0.0
2017-Feb-26 18:17N 54°37' W 005°55'0 0.0
2017-Feb-26 17:23N 54°37' W 005°55'0 0.0
2017-Feb-26 14:29N 54°37' W 005°55'0 0.0
2017-Feb-26 13:29N 54°37' W 005°55'0 0.0
2017-Feb-26 12:29N 54°37' W 005°55'0 0.0
2017-Feb-26 11:32N 54°37' W 005°55'0 0.0
2017-Feb-26 10:29N 54°37' W 005°55'0 0.0
2017-Feb-26 09:32N 54°37' W 005°55'0 0.0
2017-Feb-26 08:33N 54°37' W 005°55'6 5.8
2017-Feb-26 07:34N 54°41' W 005°48'6 6.1
2017-Feb-26 06:33N 54°43' W 005°39'3 3.1
2017-Feb-26 05:33N 54°44' W 005°33'2 1.9
2017-Feb-26 04:33N 54°43' W 005°31'7 6.6
2017-Feb-26 03:34N 54°38' W 005°24'1111.1
2017-Feb-26 02:33N 54°28' W 005°17'1111.1
2017-Feb-26 01:33N 54°17' W 005°20'1010.4
2017-Feb-26 00:33N 54°06' W 005°22'171 6.5
2017-Feb-24 22:11N 51°22' W 004°03'4011.0
2017-Feb-24 18:33N 51°29' W 002°60'4 4.5
2017-Feb-24 17:33N 51°34' W 002°58'0 0.0
2017-Feb-24 16:33N 51°34' W 002°58'0 0.0
2017-Feb-24 15:33N 51°34' W 002°58'0 0.0
2017-Feb-24 14:33N 51°34' W 002°58'0 0.0
2017-Feb-24 13:33N 51°34' W 002°58'0 0.0
2017-Feb-24 12:33N 51°34' W 002°58'0 0.0
2017-Feb-24 11:33N 51°34' W 002°58'0 0.0
2017-Feb-24 10:21N 51°34' W 002°58'0 0.0
2017-Feb-24 09:33N 51°34' W 002°58'0 0.0
2017-Feb-24 08:21N 51°34' W 002°58'0 0.0
2017-Feb-24 07:33N 51°34' W 002°58'0 0.0
2017-Feb-24 06:33N 51°34' W 002°58'0 0.0
2017-Feb-24 05:33N 51°34' W 002°58'0 0.0
2017-Feb-24 04:33N 51°34' W 002°58'0 0.0
2017-Feb-24 03:27N 51°34' W 002°58'0 0.0
2017-Feb-24 02:33N 51°34' W 002°58'0 0.0
2017-Feb-24 01:33N 51°34' W 002°58'0 0.0
2017-Feb-24 00:33N 51°34' W 002°58'0 0.0
2017-Feb-23 23:33N 51°34' W 002°58'0 0.0
2017-Feb-23 22:33N 51°34' W 002°58'0 0.0
2017-Feb-23 21:33N 51°34' W 002°58'0 0.0
2017-Feb-23 20:33N 51°34' W 002°58'0 0.0
2017-Feb-23 19:33N 51°34' W 002°58'0 0.0
2017-Feb-23 18:33N 51°34' W 002°58'0 0.0
2017-Feb-23 17:33N 51°34' W 002°58'0 0.0
2017-Feb-23 16:27N 51°34' W 002°58'0 0.0
2017-Feb-23 15:33N 51°34' W 002°58'0 0.0
2017-Feb-23 14:33N 51°34' W 002°58'0 0.0
2017-Feb-23 13:21N 51°34' W 002°58'0 0.0
2017-Feb-23 12:33N 51°34' W 002°58'0 0.0
2017-Feb-23 11:33N 51°34' W 002°58'0 0.0
2017-Feb-23 10:33N 51°34' W 002°58'0 0.0
2017-Feb-23 09:33N 51°34' W 002°58'0 0.0
2017-Feb-23 08:33N 51°34' W 002°58'0 0.0
2017-Feb-23 07:33N 51°34' W 002°58'0 0.0
2017-Feb-23 06:21N 51°34' W 002°58'0 0.0
2017-Feb-23 05:33N 51°34' W 002°58'0 0.0
2017-Feb-23 04:33N 51°34' W 002°58'0 0.0
2017-Feb-23 03:33N 51°34' W 002°58'0 0.0
2017-Feb-23 02:33N 51°34' W 002°58'0 0.0
2017-Feb-23 01:33N 51°34' W 002°58'0 0.0
2017-Feb-23 00:33N 51°34' W 002°58'0 0.0
2017-Feb-22 23:33N 51°34' W 002°58'0 0.0
2017-Feb-22 22:33N 51°34' W 002°58'0 0.0
2017-Feb-22 21:33N 51°34' W 002°58'0 0.0
2017-Feb-22 20:33N 51°34' W 002°58'0 0.0
2017-Feb-22 19:33N 51°34' W 002°58'0 0.0
2017-Feb-22 18:33N 51°34' W 002°58'0 0.0
2017-Feb-22 17:33N 51°34' W 002°58'0 0.0
2017-Feb-22 16:33N 51°34' W 002°58'0 0.0
2017-Feb-22 15:33N 51°34' W 002°58'0 0.0
2017-Feb-22 14:33N 51°34' W 002°58'0 0.0
2017-Feb-22 13:33N 51°34' W 002°58'0 0.0
2017-Feb-22 12:33N 51°34' W 002°58'0 0.0
2017-Feb-22 11:33N 51°34' W 002°58'0 0.0
2017-Feb-22 10:33N 51°34' W 002°58'0 0.0
2017-Feb-22 09:33N 51°34' W 002°58'0 0.0
2017-Feb-22 08:33N 51°34' W 002°58'0 0.0
2017-Feb-22 07:33N 51°34' W 002°58'0 0.0
2017-Feb-22 06:27N 51°34' W 002°58'0 0.0
2017-Feb-22 05:27N 51°34' W 002°58'0 0.0
2017-Feb-22 04:33N 51°34' W 002°58'0 0.0
2017-Feb-22 03:33N 51°34' W 002°58'2 1.7
2017-Feb-22 02:33N 51°32' W 002°59'10 9.8
2017-Feb-22 01:33N 51°24' W 003°07'2 0.1
2017-Feb-21 01:23N 51°22' W 003°06'810.2
2017-Feb-21 00:33N 51°27' W 002°56'9 8.7
2017-Feb-20 23:34N 51°30' W 002°43'0 0.4
2017-Feb-20 22:34N 51°31' W 002°42'0 0.0
2017-Feb-20 21:31N 51°31' W 002°42'0 0.0
2017-Feb-20 20:31N 51°31' W 002°42'0 0.0
2017-Feb-20 19:31N 51°31' W 002°42'0 0.0
2017-Feb-20 18:31N 51°31' W 002°42'0 0.0
2017-Feb-20 17:31N 51°31' W 002°42'0 0.0
2017-Feb-20 16:31N 51°31' W 002°42'0 0.0
2017-Feb-20 15:31N 51°31' W 002°42'0 0.0
2017-Feb-20 14:31N 51°31' W 002°42'0 0.0
2017-Feb-20 13:31N 51°31' W 002°42'0 0.0
2017-Feb-20 12:31N 51°31' W 002°42'0 0.0
2017-Feb-20 11:31N 51°31' W 002°42'0 0.0
2017-Feb-20 10:31N 51°31' W 002°42'0 0.0
2017-Feb-20 09:31N 51°31' W 002°42'0 0.0
2017-Feb-20 08:31N 51°31' W 002°42'0 0.0
2017-Feb-20 07:31N 51°31' W 002°42'0 0.0
2017-Feb-20 06:31N 51°31' W 002°42'0 0.0
2017-Feb-20 05:31N 51°31' W 002°42'0 0.0
2017-Feb-20 04:31N 51°31' W 002°42'0 0.0
2017-Feb-20 03:31N 51°31' W 002°42'0 0.0
2017-Feb-20 02:31N 51°31' W 002°42'0 0.0
2017-Feb-20 01:31N 51°31' W 002°42'0 0.0
2017-Feb-20 00:31N 51°31' W 002°42'0 0.0
2017-Feb-19 23:31N 51°31' W 002°42'0 0.0
2017-Feb-19 22:31N 51°31' W 002°42'0 0.0
2017-Feb-19 21:31N 51°31' W 002°42'0 0.0
2017-Feb-19 20:31N 51°31' W 002°42'0 0.0
2017-Feb-19 19:31N 51°31' W 002°42'0 0.0
2017-Feb-19 18:31N 51°31' W 002°42'0 0.0
2017-Feb-19 17:31N 51°31' W 002°42'0 0.0
2017-Feb-19 16:31N 51°31' W 002°42'0 0.0
2017-Feb-19 15:31N 51°31' W 002°42'0 0.0
2017-Feb-19 14:28N 51°31' W 002°42'0 0.0
2017-Feb-19 13:31N 51°31' W 002°42'0 0.0
2017-Feb-19 12:31N 51°31' W 002°42'0 0.0
2017-Feb-19 11:31N 51°31' W 002°42'0 0.0
2017-Feb-19 10:31N 51°31' W 002°42'0 0.0
2017-Feb-19 09:31N 51°31' W 002°42'0 0.0
2017-Feb-19 08:31N 51°31' W 002°42'0 0.0
2017-Feb-19 07:31N 51°30' W 002°42'0 0.0
2017-Feb-19 06:31N 51°31' W 002°42'0 0.0
2017-Feb-19 05:31N 51°31' W 002°42'0 0.0
2017-Feb-19 04:31N 51°31' W 002°42'0 0.0
2017-Feb-19 03:31N 51°31' W 002°42'0 0.0
2017-Feb-19 02:31N 51°31' W 002°42'0 0.0
2017-Feb-19 01:31N 51°31' W 002°42'0 0.0
2017-Feb-19 00:31N 51°31' W 002°42'0 0.0
2017-Feb-18 23:31N 51°31' W 002°42'0 0.0
2017-Feb-18 22:31N 51°31' W 002°42'0 0.5
2017-Feb-18 21:34N 51°30' W 002°43'6 5.9
2017-Feb-18 20:33N 51°28' W 002°52'63 5.7
2017-Feb-18 09:33N 51°10' W 004°28'1111.1
2017-Feb-18 08:33N 51°02' W 004°41'1110.7
2017-Feb-18 07:33N 50°55' W 004°54'1110.5
2017-Feb-18 06:33N 50°49' W 005°07'1010.2
2017-Feb-18 05:33N 50°41' W 005°18'10 9.9
2017-Feb-18 04:33N 50°35' W 005°30'10 9.7
2017-Feb-18 03:33N 50°28' W 005°41'9 9.4
2017-Feb-18 02:33N 50°22' W 005°51'  
Track history (hours):
 
Tides and Currents Weather Stations Pressure Air Temp Water Temp Dewpoint Dewpoint Depression Visibility Wind Speed Wind Dir Waves Ship Positions

Wilson Lahn

Last reported at 2017-Feb-28 02:32 UTC. Time now 2017-Feb-28 03:28 UTC.
Position N 54°37' W 005°54'.

Length 83 m; draft 4.7 m.

Type: Cargo ship. MMSI: 314259000.

Date/timePositionNaut miles runAvg speedWind from/ knotsBaromVisibWave heightAir tempDewpointWater temp
2017-Feb-28 02:32N 54°37' W 005°54'0 0.0
2017-Feb-28 01:26N 54°37' W 005°54'0 0.0
2017-Feb-28 00:32N 54°37' W 005°54'0 0.0
2017-Feb-27 23:20N 54°37' W 005°54'0 0.0
2017-Feb-27 22:20N 54°37' W 005°54'0 0.0
2017-Feb-27 21:32N 54°37' W 005°54'0 0.0
2017-Feb-27 18:22N 54°37' W 005°54'1 1.2
2017-Feb-27 17:32N 54°37' W 005°55'0 0.0
2017-Feb-27 15:26N 54°37' W 005°55'0 0.0
2017-Feb-27 07:17N 54°37' W 005°55'0 0.0
2017-Feb-27 06:20N 54°37' W 005°55'0 0.0
2017-Feb-27 05:32N 54°37' W 005°55'0 0.0
2017-Feb-27 04:29N 54°37' W 005°55'0 0.0
2017-Feb-27 03:32N 54°37' W 005°55'0 0.0
2017-Feb-27 02:32N 54°37' W 005°55'0 0.0
2017-Feb-27 01:29N 54°37' W 005°55'0 0.0
2017-Feb-27 00:29N 54°37' W 005°55'0 0.0
2017-Feb-26 20:32N 54°37' W 005°55'0 0.0
2017-Feb-26 19:29N 54°37' W 005°55'0 0.0
2017-Feb-26 18:17N 54°37' W 005°55'0 0.0
2017-Feb-26 17:23N 54°37' W 005°55'0 0.0
2017-Feb-26 14:29N 54°37' W 005°55'0 0.0
2017-Feb-26 13:29N 54°37' W 005°55'0 0.0
2017-Feb-26 12:29N 54°37' W 005°55'0 0.0
2017-Feb-26 11:32N 54°37' W 005°55'0 0.0
2017-Feb-26 10:29N 54°37' W 005°55'0 0.0
2017-Feb-26 09:32N 54°37' W 005°55'0 0.0
2017-Feb-26 08:33N 54°37' W 005°55'6 5.8
2017-Feb-26 07:34N 54°41' W 005°48'6 6.1
2017-Feb-26 06:33N 54°43' W 005°39'3 3.1
2017-Feb-26 05:33N 54°44' W 005°33'2 1.9
2017-Feb-26 04:33N 54°43' W 005°31'7 6.6
2017-Feb-26 03:34N 54°38' W 005°24'1111.1
2017-Feb-26 02:33N 54°28' W 005°17'1111.1
2017-Feb-26 01:33N 54°17' W 005°20'1010.4
2017-Feb-26 00:33N 54°06' W 005°22'171 6.5
2017-Feb-24 22:11N 51°22' W 004°03'4011.0
2017-Feb-24 18:33N 51°29' W 002°60'4 4.5
2017-Feb-24 17:33N 51°34' W 002°58'0 0.0
2017-Feb-24 16:33N 51°34' W 002°58'0 0.0
2017-Feb-24 15:33N 51°34' W 002°58'0 0.0
2017-Feb-24 14:33N 51°34' W 002°58'0 0.0
2017-Feb-24 13:33N 51°34' W 002°58'0 0.0
2017-Feb-24 12:33N 51°34' W 002°58'0 0.0
2017-Feb-24 11:33N 51°34' W 002°58'0 0.0
2017-Feb-24 10:21N 51°34' W 002°58'0 0.0
2017-Feb-24 09:33N 51°34' W 002°58'0 0.0
2017-Feb-24 08:21N 51°34' W 002°58'0 0.0
2017-Feb-24 07:33N 51°34' W 002°58'0 0.0
2017-Feb-24 06:33N 51°34' W 002°58'0 0.0
2017-Feb-24 05:33N 51°34' W 002°58'0 0.0
2017-Feb-24 04:33N 51°34' W 002°58'0 0.0
2017-Feb-24 03:27N 51°34' W 002°58'0 0.0
2017-Feb-24 02:33N 51°34' W 002°58'0 0.0
2017-Feb-24 01:33N 51°34' W 002°58'0 0.0
2017-Feb-24 00:33N 51°34' W 002°58'0 0.0
2017-Feb-23 23:33N 51°34' W 002°58'0 0.0
2017-Feb-23 22:33N 51°34' W 002°58'0 0.0
2017-Feb-23 21:33N 51°34' W 002°58'0 0.0
2017-Feb-23 20:33N 51°34' W 002°58'0 0.0
2017-Feb-23 19:33N 51°34' W 002°58'0 0.0
2017-Feb-23 18:33N 51°34' W 002°58'0 0.0
2017-Feb-23 17:33N 51°34' W 002°58'0 0.0
2017-Feb-23 16:27N 51°34' W 002°58'0 0.0
2017-Feb-23 15:33N 51°34' W 002°58'0 0.0
2017-Feb-23 14:33N 51°34' W 002°58'0 0.0
2017-Feb-23 13:21N 51°34' W 002°58'0 0.0
2017-Feb-23 12:33N 51°34' W 002°58'0 0.0
2017-Feb-23 11:33N 51°34' W 002°58'0 0.0
2017-Feb-23 10:33N 51°34' W 002°58'0 0.0
2017-Feb-23 09:33N 51°34' W 002°58'0 0.0
2017-Feb-23 08:33N 51°34' W 002°58'0 0.0
2017-Feb-23 07:33N 51°34' W 002°58'0 0.0
2017-Feb-23 06:21N 51°34' W 002°58'0 0.0
2017-Feb-23 05:33N 51°34' W 002°58'0 0.0
2017-Feb-23 04:33N 51°34' W 002°58'0 0.0
2017-Feb-23 03:33N 51°34' W 002°58'0 0.0
2017-Feb-23 02:33N 51°34' W 002°58'0 0.0
2017-Feb-23 01:33N 51°34' W 002°58'0 0.0
2017-Feb-23 00:33N 51°34' W 002°58'0 0.0
2017-Feb-22 23:33N 51°34' W 002°58'0 0.0
2017-Feb-22 22:33N 51°34' W 002°58'0 0.0
2017-Feb-22 21:33N 51°34' W 002°58'0 0.0
2017-Feb-22 20:33N 51°34' W 002°58'0 0.0
2017-Feb-22 19:33N 51°34' W 002°58'0 0.0
2017-Feb-22 18:33N 51°34' W 002°58'0 0.0
2017-Feb-22 17:33N 51°34' W 002°58'0 0.0
2017-Feb-22 16:33N 51°34' W 002°58'0 0.0
2017-Feb-22 15:33N 51°34' W 002°58'0 0.0
2017-Feb-22 14:33N 51°34' W 002°58'0 0.0
2017-Feb-22 13:33N 51°34' W 002°58'0 0.0
2017-Feb-22 12:33N 51°34' W 002°58'0 0.0
2017-Feb-22 11:33N 51°34' W 002°58'0 0.0
2017-Feb-22 10:33N 51°34' W 002°58'0 0.0
2017-Feb-22 09:33N 51°34' W 002°58'0 0.0
2017-Feb-22 08:33N 51°34' W 002°58'0 0.0
2017-Feb-22 07:33N 51°34' W 002°58'0 0.0
2017-Feb-22 06:27N 51°34' W 002°58'0 0.0
2017-Feb-22 05:27N 51°34' W 002°58'0 0.0
2017-Feb-22 04:33N 51°34' W 002°58'0 0.0
2017-Feb-22 03:33N 51°34' W 002°58'2 1.7
2017-Feb-22 02:33N 51°32' W 002°59'10 9.8
2017-Feb-22 01:33N 51°24' W 003°07'2 0.1
2017-Feb-21 01:23N 51°22' W 003°06'810.2
2017-Feb-21 00:33N 51°27' W 002°56'9 8.7
2017-Feb-20 23:34N 51°30' W 002°43'0 0.4
2017-Feb-20 22:34N 51°31' W 002°42'0 0.0
2017-Feb-20 21:31N 51°31' W 002°42'0 0.0
2017-Feb-20 20:31N 51°31' W 002°42'0 0.0
2017-Feb-20 19:31N 51°31' W 002°42'0 0.0
2017-Feb-20 18:31N 51°31' W 002°42'0 0.0
2017-Feb-20 17:31N 51°31' W 002°42'0 0.0
2017-Feb-20 16:31N 51°31' W 002°42'0 0.0
2017-Feb-20 15:31N 51°31' W 002°42'0 0.0
2017-Feb-20 14:31N 51°31' W 002°42'0 0.0
2017-Feb-20 13:31N 51°31' W 002°42'0 0.0
2017-Feb-20 12:31N 51°31' W 002°42'0 0.0
2017-Feb-20 11:31N 51°31' W 002°42'0 0.0
2017-Feb-20 10:31N 51°31' W 002°42'0 0.0
2017-Feb-20 09:31N 51°31' W 002°42'0 0.0
2017-Feb-20 08:31N 51°31' W 002°42'0 0.0
2017-Feb-20 07:31N 51°31' W 002°42'0 0.0
2017-Feb-20 06:31N 51°31' W 002°42'0 0.0
2017-Feb-20 05:31N 51°31' W 002°42'0 0.0
2017-Feb-20 04:31N 51°31' W 002°42'0 0.0
2017-Feb-20 03:31N 51°31' W 002°42'0 0.0
2017-Feb-20 02:31N 51°31' W 002°42'0 0.0
2017-Feb-20 01:31N 51°31' W 002°42'0 0.0
2017-Feb-20 00:31N 51°31' W 002°42'0 0.0
2017-Feb-19 23:31N 51°31' W 002°42'0 0.0
2017-Feb-19 22:31N 51°31' W 002°42'0 0.0
2017-Feb-19 21:31N 51°31' W 002°42'0 0.0
2017-Feb-19 20:31N 51°31' W 002°42'0 0.0
2017-Feb-19 19:31N 51°31' W 002°42'0 0.0
2017-Feb-19 18:31N 51°31' W 002°42'0 0.0
2017-Feb-19 17:31N 51°31' W 002°42'0 0.0
2017-Feb-19 16:31N 51°31' W 002°42'0 0.0
2017-Feb-19 15:31N 51°31' W 002°42'0 0.0
2017-Feb-19 14:28N 51°31' W 002°42'0 0.0
2017-Feb-19 13:31N 51°31' W 002°42'0 0.0
2017-Feb-19 12:31N 51°31' W 002°42'0 0.0
2017-Feb-19 11:31N 51°31' W 002°42'0 0.0
2017-Feb-19 10:31N 51°31' W 002°42'0 0.0
2017-Feb-19 09:31N 51°31' W 002°42'0 0.0
2017-Feb-19 08:31N 51°31' W 002°42'0 0.0
2017-Feb-19 07:31N 51°30' W 002°42'0 0.0
2017-Feb-19 06:31N 51°31' W 002°42'0 0.0
2017-Feb-19 05:31N 51°31' W 002°42'0 0.0
2017-Feb-19 04:31N 51°31' W 002°42'0 0.0
2017-Feb-19 03:31N 51°31' W 002°42'0 0.0
2017-Feb-19 02:31N 51°31' W 002°42'0 0.0
2017-Feb-19 01:31N 51°31' W 002°42'0 0.0
2017-Feb-19 00:31N 51°31' W 002°42'0 0.0
2017-Feb-18 23:31N 51°31' W 002°42'0 0.0
2017-Feb-18 22:31N 51°31' W 002°42'0 0.5
2017-Feb-18 21:34N 51°30' W 002°43'6 5.9
2017-Feb-18 20:33N 51°28' W 002°52'63 5.7
2017-Feb-18 09:33N 51°10' W 004°28'1111.1
2017-Feb-18 08:33N 51°02' W 004°41'1110.7
2017-Feb-18 07:33N 50°55' W 004°54'1110.5
2017-Feb-18 06:33N 50°49' W 005°07'1010.2
2017-Feb-18 05:33N 50°41' W 005°18'10 9.9
2017-Feb-18 04:33N 50°35' W 005°30'10 9.7
2017-Feb-18 03:33N 50°28' W 005°41'9 9.4
2017-Feb-18 02:33N 50°22' W 005°51'  

Dump ship's entire track history